createdAt,value
2022-09-09T00:01:42.786Z,10.73
2022-09-09T00:07:23.322Z,8.93
2022-09-09T00:12:41.534Z,6.80
2022-09-09T00:18:25.973Z,9.97
2022-09-09T00:23:32.409Z,10.83
2022-09-09T00:28:57.121Z,10.27
2022-09-09T00:34:12.116Z,9.13
2022-09-09T00:39:32.571Z,9.00
2022-09-09T00:44:42.421Z,9.73
2022-09-09T00:50:04.046Z,12.40
2022-09-09T00:55:36.606Z,10.27
2022-09-09T01:01:09.493Z,9.17
2022-09-09T01:06:35.994Z,10.70
2022-09-09T01:12:04.750Z,9.77
2022-09-09T01:18:00.143Z,10.70
2022-09-09T01:23:10.315Z,11.30
2022-09-09T01:28:23.792Z,15.00
2022-09-09T01:33:27.964Z,9.20
2022-09-09T01:38:35.690Z,9.13
2022-09-09T01:43:43.514Z,10.53
2022-09-09T01:48:48.324Z,13.50
2022-09-09T01:53:52.521Z,11.83
2022-09-09T01:59:05.920Z,9.87
2022-09-09T02:04:31.455Z,11.07
2022-09-09T02:09:38.302Z,9.20
2022-09-09T02:14:50.951Z,15.23
2022-09-09T02:20:07.193Z,12.77
2022-09-09T02:25:15.505Z,13.10
2022-09-09T02:30:22.091Z,13.17
2022-09-09T02:35:29.409Z,14.23
2022-09-09T02:40:35.744Z,14.77
2022-09-09T02:46:17.121Z,14.23
2022-09-09T02:51:39.553Z,17.00
2022-09-09T02:56:49.835Z,17.17
2022-09-09T03:01:55.254Z,15.30
2022-09-09T03:07:02.290Z,13.63
2022-09-09T03:12:08.253Z,14.00
2022-09-09T03:17:12.500Z,12.53
2022-09-09T03:22:16.723Z,15.53
2022-09-09T03:27:21.933Z,12.60
2022-09-09T03:32:27.843Z,13.60
2022-09-09T03:37:34.223Z,14.17
2022-09-09T03:42:39.606Z,14.37
2022-09-09T03:47:42.921Z,13.33
2022-09-09T03:52:49.366Z,14.93
2022-09-09T03:57:54.496Z,12.60
2022-09-09T04:02:58.978Z,14.57
2022-09-09T04:08:03.482Z,15.83
2022-09-09T04:13:08.021Z,15.20
2022-09-09T04:18:16.943Z,15.00
2022-09-09T04:23:25.399Z,15.13
2022-09-09T04:28:33.736Z,13.73
2022-09-09T04:33:40.380Z,14.50
2022-09-09T04:38:46.171Z,14.73
2022-09-09T04:43:50.067Z,13.97
2022-09-09T04:48:54.401Z,19.13
2022-09-09T04:53:58.511Z,15.13
2022-09-09T04:59:05.453Z,14.20
2022-09-09T05:04:10.359Z,17.87
2022-09-09T05:09:14.089Z,15.77
2022-09-09T05:14:19.218Z,16.37
2022-09-09T05:19:22.789Z,17.90
2022-09-09T05:24:26.611Z,19.50
2022-09-09T05:29:31.206Z,23.77
2022-09-09T05:34:35.121Z,18.90
2022-09-09T05:39:39.884Z,22.67
2022-09-09T05:44:44.720Z,20.73
2022-09-09T05:49:51.332Z,26.07
2022-09-09T05:54:57.016Z,25.20
2022-09-09T06:00:01.709Z,24.20
2022-09-09T06:05:06.839Z,23.43
2022-09-09T06:10:15.998Z,28.43
2022-09-09T06:15:19.565Z,25.27
2022-09-09T06:20:23.950Z,29.20
2022-09-09T06:25:27.316Z,27.00
2022-09-09T06:30:31.456Z,28.63
2022-09-09T06:35:34.778Z,29.43
2022-09-09T06:40:38.630Z,31.10
2022-09-09T06:45:42.201Z,26.63
2022-09-09T06:50:46.209Z,29.03
2022-09-09T06:55:52.482Z,32.00
2022-09-09T07:01:16.090Z,31.10
2022-09-09T07:06:25.752Z,27.70
2022-09-09T07:11:33.082Z,31.63
2022-09-09T07:16:38.959Z,27.90
2022-09-09T07:21:45.651Z,29.67
2022-09-09T07:26:49.839Z,27.90
2022-09-09T07:31:53.591Z,29.80
2022-09-09T07:36:59.471Z,33.17
2022-09-09T07:42:03.231Z,29.47
2022-09-09T07:47:07.861Z,31.10
2022-09-09T07:52:13.291Z,32.53
2022-09-09T07:57:19.548Z,34.73
2022-09-09T08:02:27.439Z,38.33
2022-09-09T08:07:34.900Z,36.87
2022-09-09T08:12:38.611Z,38.83
2022-09-09T08:17:42.266Z,35.37
2022-09-09T08:22:46.461Z,39.27
2022-09-09T08:27:50.579Z,36.27
2022-09-09T08:32:55.471Z,37.53
2022-09-09T08:38:07.618Z,40.33
2022-09-09T08:43:14.599Z,39.90
2022-09-09T08:48:39.936Z,36.97
2022-09-09T08:53:54.413Z,38.90
2022-09-09T08:59:02.056Z,35.90
2022-09-09T09:04:34.600Z,41.67
2022-09-09T09:10:00.591Z,41.63
2022-09-09T09:15:18.530Z,43.63
2022-09-09T09:20:49.252Z,39.47
2022-09-09T09:25:58.903Z,39.17
2022-09-09T09:31:10.728Z,45.90
2022-09-09T09:36:19.196Z,43.50
2022-09-09T09:41:42.599Z,38.07
2022-09-09T09:46:47.239Z,41.80
2022-09-09T09:51:51.508Z,44.80
2022-09-09T09:56:56.070Z,40.77
2022-09-09T10:02:28.821Z,43.90
2022-09-09T10:07:33.620Z,42.60
2022-09-09T10:13:13.383Z,42.43
2022-09-09T10:18:30.211Z,46.60
2022-09-09T10:24:28.458Z,40.77
2022-09-09T10:29:54.623Z,44.80
2022-09-09T10:35:30.689Z,49.67
2022-09-09T10:40:40.642Z,41.20
2022-09-09T10:46:15.637Z,43.38
2022-09-09T10:51:29.991Z,41.27
2022-09-09T10:57:08.191Z,33.70
2022-09-09T11:02:28.477Z,34.92
2022-09-09T11:07:50.916Z,37.87
2022-09-09T11:13:02.660Z,35.45
2022-09-09T11:18:24.907Z,37.70
2022-09-09T11:23:44.721Z,38.10
2022-09-09T11:29:27.863Z,35.10
2022-09-09T11:35:19.502Z,34.80
2022-09-09T11:40:27.186Z,33.45
2022-09-09T11:45:33.216Z,29.90
2022-09-09T11:50:42.884Z,25.98
2022-09-09T11:55:46.251Z,27.65
2022-09-09T12:00:57.200Z,28.65
2022-09-09T12:06:47.838Z,24.98
2022-09-09T12:11:52.498Z,28.23
2022-09-09T12:16:58.981Z,27.25
2022-09-09T12:22:18.791Z,27.63
2022-09-09T12:27:47.326Z,32.10
2022-09-09T12:33:02.803Z,25.10
2022-09-09T12:38:13.085Z,27.20
2022-09-09T12:43:25.383Z,30.33
2022-09-09T12:48:49.607Z,26.55
2022-09-09T12:53:53.854Z,23.58
2022-09-09T12:58:59.870Z,23.65
2022-09-09T13:04:23.458Z,23.25
2022-09-09T13:09:28.297Z,27.92
2022-09-09T13:14:44.094Z,27.20
2022-09-09T13:19:57.592Z,21.83
2022-09-09T13:25:13.362Z,20.90
2022-09-09T13:30:38.044Z,24.27
2022-09-09T13:35:51.538Z,21.42
2022-09-09T13:41:08.136Z,22.23
2022-09-09T13:46:32.844Z,22.83
2022-09-09T13:51:41.295Z,22.65
2022-09-09T13:56:46.291Z,23.92
2022-09-09T14:01:54.026Z,21.55
2022-09-09T14:06:59.896Z,20.98
2022-09-09T14:12:04.326Z,24.45
2022-09-09T14:17:12.346Z,22.83
2022-09-09T14:22:16.584Z,20.63
2022-09-09T14:27:20.557Z,23.85
2022-09-09T14:32:28.397Z,22.38
2022-09-09T14:37:37.549Z,25.58
2022-09-09T14:42:42.167Z,22.75
2022-09-09T14:47:46.915Z,21.92
2022-09-09T14:52:50.670Z,24.95
2022-09-09T14:57:54.736Z,24.95
2022-09-09T15:02:58.916Z,24.98
2022-09-09T15:08:02.857Z,27.13
2022-09-09T15:13:06.887Z,30.13
2022-09-09T15:18:10.837Z,30.05
2022-09-09T15:23:15.853Z,27.55
2022-09-09T15:28:19.567Z,29.23
2022-09-09T15:33:24.375Z,28.08
2022-09-09T15:38:30.326Z,27.30
2022-09-09T15:43:33.726Z,27.33
2022-09-09T15:53:43.797Z,27.58
2022-09-09T15:58:47.420Z,28.40
2022-09-09T16:03:52.356Z,26.15
2022-09-09T16:08:57.716Z,24.02
2022-09-09T16:14:02.036Z,23.65
2022-09-09T16:19:08.487Z,25.13
2022-09-09T16:24:15.116Z,24.08
2022-09-09T16:29:20.686Z,26.80
2022-09-09T16:34:24.246Z,27.15
2022-09-09T16:39:27.806Z,31.20
2022-09-09T16:44:31.636Z,27.20
2022-09-09T16:49:36.479Z,28.92
2022-09-09T16:54:39.897Z,29.90
2022-09-09T16:59:43.307Z,28.77
2022-09-09T17:04:46.830Z,30.23
2022-09-09T17:09:50.387Z,29.37
2022-09-09T17:14:53.977Z,31.83
2022-09-09T17:19:57.566Z,33.33
2022-09-09T17:25:02.115Z,34.13
2022-09-09T17:30:06.646Z,33.03
2022-09-09T17:35:10.743Z,34.33
2022-09-09T17:40:15.317Z,31.90
2022-09-09T17:45:18.667Z,32.10
2022-09-09T17:50:22.526Z,30.87
2022-09-09T17:55:27.067Z,31.20
2022-09-09T18:00:31.746Z,32.23
2022-09-09T18:05:35.127Z,31.13
2022-09-09T18:10:38.671Z,33.50
2022-09-09T18:15:49.337Z,30.27
2022-09-09T18:21:08.400Z,37.47
2022-09-09T18:26:14.586Z,38.70
2022-09-09T18:31:19.829Z,36.87
2022-09-09T18:36:30.466Z,36.17
2022-09-09T18:41:36.804Z,38.57
2022-09-09T18:46:42.275Z,37.43
2022-09-09T18:51:47.328Z,39.37
2022-09-09T18:56:51.696Z,38.40
2022-09-09T19:01:55.833Z,40.33
2022-09-09T19:06:59.691Z,44.00
2022-09-09T19:12:03.627Z,39.53
2022-09-09T19:17:10.617Z,39.57
2022-09-09T19:22:15.444Z,45.73
2022-09-09T19:27:20.526Z,49.17
2022-09-09T19:37:50.696Z,50.53
2022-09-09T19:42:55.174Z,48.77
2022-09-09T19:48:03.257Z,53.30
2022-09-09T19:53:07.364Z,55.43
2022-09-09T19:58:10.667Z,50.40
2022-09-09T20:03:19.475Z,56.20
2022-09-09T20:08:23.926Z,57.47
2022-09-09T20:13:27.503Z,61.17
2022-09-09T20:18:33.415Z,61.17
2022-09-09T20:23:37.817Z,60.90
2022-09-09T20:28:43.025Z,62.90
2022-09-09T20:33:47.922Z,58.47
2022-09-09T20:38:58.452Z,64.57
2022-09-09T20:44:05.157Z,67.33
2022-09-09T20:49:11.649Z,65.93
2022-09-09T20:54:24.729Z,68.60
2022-09-09T20:59:30.953Z,71.63
2022-09-09T21:04:33.982Z,73.10
2022-09-09T21:09:37.352Z,65.50
2022-09-09T21:14:43.384Z,69.47
2022-09-09T21:19:47.930Z,66.67
2022-09-09T21:24:51.876Z,69.43
2022-09-09T21:29:55.456Z,72.77
2022-09-09T21:35:00.098Z,70.43
2022-09-09T21:40:03.742Z,63.80
2022-09-09T21:45:07.775Z,71.37
2022-09-09T21:50:11.406Z,67.73
2022-09-09T21:55:16.096Z,67.43
2022-09-09T22:00:19.636Z,63.07
2022-09-09T22:05:23.433Z,68.37
2022-09-09T22:10:30.227Z,68.77
2022-09-09T22:15:33.988Z,68.03
2022-09-09T22:20:42.546Z,61.60
2022-09-09T22:25:45.851Z,64.93
2022-09-09T22:30:49.651Z,70.70
2022-09-09T22:35:53.172Z,58.93
2022-09-09T22:40:57.266Z,64.07
2022-09-09T22:46:04.900Z,64.80
2022-09-09T22:51:11.847Z,69.60
2022-09-09T22:56:20.143Z,68.77
2022-09-09T23:01:25.811Z,61.07
2022-09-09T23:06:30.737Z,66.07
2022-09-09T23:11:37.935Z,72.93
2022-09-09T23:16:44.727Z,64.60
2022-09-09T23:21:49.207Z,69.77
2022-09-09T23:26:53.596Z,64.97
2022-09-09T23:31:57.066Z,71.00
2022-09-09T23:37:00.588Z,76.37
2022-09-09T23:42:06.353Z,75.87
2022-09-09T23:47:10.747Z,74.93
2022-09-09T23:52:14.906Z,86.10
2022-09-09T23:57:18.365Z,83.17
